createdAt,value
2017-05-02T00:00:15.531Z,37.21
2017-05-02T00:01:25.441Z,37.21
2017-05-02T00:02:35.061Z,37.19
2017-05-02T00:03:45.275Z,37.21
2017-05-02T00:04:54.882Z,37.21
2017-05-02T00:06:05.093Z,37.21
2017-05-02T00:07:14.691Z,37.21
2017-05-02T00:08:24.315Z,37.12
2017-05-02T00:09:34.534Z,37.21
2017-05-02T00:10:44.446Z,37.21
2017-05-02T00:11:54.193Z,37.21
2017-05-02T00:13:04.112Z,37.21
2017-05-02T00:14:14.363Z,37.21
2017-05-02T00:15:23.969Z,37.31
2017-05-02T00:16:34.194Z,37.21
2017-05-02T00:17:44.706Z,37.19
2017-05-02T00:18:54.936Z,37.21
2017-05-02T00:20:04.846Z,37.21
2017-05-02T00:21:14.447Z,37.21
2017-05-02T00:22:24.364Z,37.31
2017-05-02T00:23:34.387Z,37.31
2017-05-02T00:24:44.598Z,37.21
2017-05-02T00:25:54.214Z,37.31
2017-05-02T00:27:03.822Z,37.21
2017-05-02T00:28:13.434Z,37.31
2017-05-02T00:29:23.340Z,37.21
2017-05-02T00:30:32.627Z,37.21
2017-05-02T00:31:41.922Z,37.21
2017-05-02T00:32:51.825Z,37.21
2017-05-02T00:34:01.741Z,37.21
2017-05-02T00:35:12.108Z,37.21
2017-05-02T00:36:21.703Z,37.21
2017-05-02T00:37:31.312Z,37.21
2017-05-02T00:38:41.224Z,37.12
2017-05-02T00:39:51.141Z,37.21
2017-05-02T00:41:01.371Z,37.21
2017-05-02T00:42:10.715Z,37.21
2017-05-02T00:43:20.330Z,37.21
2017-05-02T00:44:30.540Z,37.21
2017-05-02T00:45:41.138Z,37.21
2017-05-02T00:46:51.394Z,37.21
2017-05-02T00:48:01.310Z,37.21
2017-05-02T00:49:11.210Z,37.31
2017-05-02T00:50:21.428Z,37.31
2017-05-02T00:51:31.655Z,37.21
2017-05-02T00:52:41.681Z,37.21
2017-05-02T00:53:51.645Z,37.31
2017-05-02T00:55:01.861Z,37.21
2017-05-02T00:56:11.753Z,37.21
2017-05-02T00:57:21.659Z,37.21
2017-05-02T00:58:31.713Z,37.21
2017-05-02T00:59:41.929Z,37.31
2017-05-02T01:00:51.841Z,37.31
2017-05-02T01:02:02.059Z,37.31
2017-05-02T01:03:12.269Z,37.21
2017-05-02T01:04:22.788Z,37.21
2017-05-02T01:05:32.693Z,37.21
2017-05-02T01:06:42.907Z,37.21
2017-05-02T01:07:52.200Z,37.21
2017-05-02T01:09:02.409Z,37.21
2017-05-02T01:10:12.481Z,37.21
2017-05-02T01:11:22.123Z,37.21
2017-05-02T01:12:32.025Z,37.21
2017-05-02T01:13:42.249Z,37.31
2017-05-02T01:14:52.195Z,37.31
2017-05-02T01:16:02.802Z,37.31
2017-05-02T01:17:13.012Z,37.21
2017-05-02T01:18:22.928Z,37.21
2017-05-02T01:19:32.846Z,37.21
2017-05-02T01:20:42.451Z,37.12
2017-05-02T01:21:52.294Z,37.31
2017-05-02T01:23:02.198Z,37.31
2017-05-02T01:24:12.111Z,37.21
2017-05-02T01:25:22.334Z,37.31
2017-05-02T01:26:32.232Z,37.21
2017-05-02T01:27:42.585Z,37.31
2017-05-02T01:28:51.577Z,37.31
2017-05-02T01:30:01.495Z,37.21
2017-05-02T01:31:11.405Z,37.21
2017-05-02T01:32:21.307Z,37.31
2017-05-02T01:33:31.228Z,37.21
2017-05-02T01:34:41.151Z,37.21
2017-05-02T01:35:50.790Z,37.21
2017-05-02T01:37:00.709Z,37.21
2017-05-02T01:38:10.313Z,37.21
2017-05-02T01:39:20.524Z,37.31
2017-05-02T01:40:30.441Z,37.21
2017-05-02T01:41:40.647Z,37.31
2017-05-02T01:42:50.863Z,37.21
2017-05-02T01:44:01.084Z,37.21
2017-05-02T01:45:10.318Z,37.21
2017-05-02T01:46:20.228Z,37.21
2017-05-02T01:47:29.829Z,37.21
2017-05-02T01:48:39.734Z,37.21
2017-05-02T01:49:49.664Z,37.21
2017-05-02T01:50:59.525Z,37.21
2017-05-02T01:52:09.135Z,37.21
2017-05-02T01:53:18.731Z,37.21
2017-05-02T01:54:28.654Z,37.21
2017-05-02T01:55:38.867Z,37.31
2017-05-02T01:56:48.929Z,37.21
2017-05-02T01:57:58.925Z,37.21
2017-05-02T01:59:08.817Z,37.21
2017-05-02T02:00:19.034Z,37.21
2017-05-02T02:01:28.940Z,37.21
2017-05-02T02:02:39.138Z,37.21
2017-05-02T02:03:49.044Z,37.02
2017-05-02T02:04:58.991Z,37.21
2017-05-02T02:06:08.897Z,37.21
2017-05-02T02:07:18.815Z,37.02
2017-05-02T02:08:28.730Z,37.12
2017-05-02T02:09:38.640Z,37.12
2017-05-02T02:10:48.560Z,37.41
2017-05-02T02:11:58.765Z,37.12
2017-05-02T02:13:08.679Z,37.21
2017-05-02T02:14:18.323Z,37.12
2017-05-02T02:15:28.537Z,37.02
2017-05-02T02:16:38.124Z,36.93
2017-05-02T02:17:48.379Z,37.12
2017-05-02T02:18:57.981Z,37.31
2017-05-02T02:20:07.374Z,37.12
2017-05-02T02:21:16.967Z,36.93
2017-05-02T02:22:26.870Z,37.12
2017-05-02T02:23:37.080Z,37.02
2017-05-02T02:24:46.990Z,37.12
2017-05-02T02:25:57.603Z,37.02
2017-05-02T02:27:07.822Z,36.93
2017-05-02T02:28:17.418Z,37.12
2017-05-02T02:29:27.339Z,37.02
2017-05-02T02:30:37.241Z,36.93
2017-05-02T02:31:47.750Z,37.02
2017-05-02T02:32:57.654Z,37.12
2017-05-02T02:34:07.865Z,37.12
2017-05-02T02:35:17.470Z,36.93
2017-05-02T02:36:27.685Z,36.93
2017-05-02T02:37:37.845Z,37.12
2017-05-02T02:38:47.749Z,37.12
2017-05-02T02:39:57.667Z,37.02
2017-05-02T02:41:06.967Z,36.93
2017-05-02T02:42:16.865Z,36.83
2017-05-02T02:43:27.025Z,37.02
2017-05-02T02:44:37.248Z,36.83
2017-05-02T02:45:46.844Z,37.02
2017-05-02T02:46:56.805Z,36.93
2017-05-02T02:48:06.391Z,37.02
2017-05-02T02:49:16.150Z,37.02
2017-05-02T02:50:25.741Z,37.02
2017-05-02T02:51:35.970Z,36.93
2017-05-02T02:52:45.878Z,36.83
2017-05-02T02:53:55.799Z,36.93
2017-05-02T02:55:06.165Z,37.02
2017-05-02T02:56:15.757Z,36.93
2017-05-02T02:57:25.665Z,36.83
2017-05-02T02:58:35.883Z,36.83
2017-05-02T02:59:45.477Z,37.02
2017-05-02T03:00:56.058Z,36.83
2017-05-02T03:02:05.672Z,36.93
2017-05-02T03:03:14.959Z,37.12
2017-05-02T03:04:24.268Z,37.02
2017-05-02T03:05:34.190Z,37.02
2017-05-02T03:06:44.448Z,37.02
2017-05-02T03:07:54.653Z,37.12
2017-05-02T03:09:04.554Z,37.12
2017-05-02T03:10:14.460Z,37.21
2017-05-02T03:11:24.368Z,37.31
2017-05-02T03:12:34.374Z,37.12
2017-05-02T03:13:44.270Z,37.21
2017-05-02T03:14:54.175Z,37.21
2017-05-02T03:16:04.084Z,37.12
2017-05-02T03:17:13.685Z,37.12
2017-05-02T03:18:23.879Z,37.31
2017-05-02T03:19:34.093Z,37.12
2017-05-02T03:20:44.300Z,37.12
2017-05-02T03:21:54.206Z,37.02
2017-05-02T03:23:04.406Z,37.12
2017-05-02T03:24:14.667Z,36.93
2017-05-02T03:25:24.881Z,36.83
2017-05-02T03:26:34.799Z,37.12
2017-05-02T03:27:45.008Z,37.21
2017-05-02T03:28:55.226Z,37.21
2017-05-02T03:30:04.988Z,37.12
2017-05-02T03:31:14.586Z,37.12
2017-05-02T03:32:24.493Z,36.83
2017-05-02T03:33:34.113Z,36.93
2017-05-02T03:34:44.023Z,36.83
2017-05-02T03:35:54.488Z,37.02
2017-05-02T03:37:04.092Z,36.93
2017-05-02T03:38:14.301Z,37.02
2017-05-02T03:39:24.205Z,36.93
2017-05-02T03:40:34.418Z,37.12
2017-05-02T03:41:44.423Z,37.02
2017-05-02T03:42:54.015Z,37.02
2017-05-02T03:44:03.923Z,36.83
2017-05-02T03:45:13.819Z,37.02
2017-05-02T03:46:23.723Z,37.02
2017-05-02T03:47:33.473Z,36.83
2017-05-02T03:48:43.379Z,37.02
2017-05-02T03:49:53.603Z,37.02
2017-05-02T03:51:03.819Z,37.12
2017-05-02T03:52:13.733Z,36.93
2017-05-02T03:53:23.884Z,36.93
2017-05-02T03:54:33.801Z,37.02
2017-05-02T03:55:44.007Z,37.02
2017-05-02T03:56:53.900Z,37.02
2017-05-02T03:58:03.816Z,37.02
2017-05-02T03:59:13.877Z,37.12
2017-05-02T04:00:23.775Z,37.02
2017-05-02T04:01:33.979Z,36.93
2017-05-02T04:02:44.188Z,37.02
2017-05-02T04:03:53.787Z,37.02
2017-05-02T04:05:04.174Z,36.83
2017-05-02T04:06:14.428Z,37.02
2017-05-02T04:07:24.332Z,37.02
2017-05-02T04:08:33.929Z,36.93
2017-05-02T04:09:44.146Z,36.93
2017-05-02T04:10:54.199Z,36.93
2017-05-02T04:12:04.124Z,37.02
2017-05-02T04:13:13.441Z,37.02
2017-05-02T04:14:23.653Z,36.93
2017-05-02T04:15:33.557Z,36.93
2017-05-02T04:16:43.955Z,36.93
2017-05-02T04:17:53.860Z,37.02
2017-05-02T04:19:04.075Z,36.93
2017-05-02T04:20:14.305Z,36.93
2017-05-02T04:21:24.516Z,36.93
2017-05-02T04:22:34.736Z,36.83
2017-05-02T04:23:44.946Z,36.73
2017-05-02T04:24:54.846Z,36.73
2017-05-02T04:26:05.049Z,36.83
2017-05-02T04:27:14.338Z,36.73
2017-05-02T04:28:24.088Z,36.63
2017-05-02T04:29:33.390Z,36.73
2017-05-02T04:30:43.032Z,36.63
2017-05-02T04:31:52.621Z,36.83
2017-05-02T04:33:02.827Z,36.54
2017-05-02T04:34:12.844Z,36.73
2017-05-02T04:35:22.754Z,36.73
2017-05-02T04:36:33.013Z,36.54
2017-05-02T04:37:42.928Z,36.93
2017-05-02T04:38:53.139Z,36.63
2017-05-02T04:40:02.916Z,36.83
2017-05-02T04:41:13.118Z,36.54
2017-05-02T04:42:22.754Z,36.63
2017-05-02T04:43:32.986Z,36.44
2017-05-02T04:44:43.227Z,36.35
2017-05-02T04:45:53.185Z,36.15
2017-05-02T04:47:02.779Z,36.46
2017-05-02T04:48:12.979Z,36.17
2017-05-02T04:49:22.898Z,36.27
2017-05-02T04:50:32.815Z,35.78
2017-05-02T04:51:43.287Z,35.98
2017-05-02T04:52:53.524Z,35.88
2017-05-02T04:54:03.750Z,35.69
2017-05-02T04:55:13.657Z,35.69
2017-05-02T04:56:23.589Z,35.98
2017-05-02T04:57:34.191Z,35.78
2017-05-02T04:58:44.103Z,35.5
2017-05-02T04:59:54.333Z,35.52
2017-05-02T05:01:03.935Z,35.61
2017-05-02T05:02:14.158Z,35.22
2017-05-02T05:03:25.080Z,35.32
2017-05-02T05:04:34.982Z,35.13
2017-05-02T05:05:45.200Z,35.03
2017-05-02T05:06:54.500Z,35.13
2017-05-02T05:08:04.715Z,35.13
2017-05-02T05:09:15.252Z,35.22
2017-05-02T05:10:25.167Z,35.13
2017-05-02T05:11:35.071Z,34.95
2017-05-02T05:12:45.285Z,34.86
2017-05-02T05:13:55.505Z,34.56
2017-05-02T05:15:05.554Z,34.56
2017-05-02T05:16:15.447Z,34.56
2017-05-02T05:17:25.050Z,34.56
2017-05-02T05:18:35.261Z,34.47
2017-05-02T05:19:45.468Z,34.47
2017-05-02T05:20:55.217Z,34.28
2017-05-02T05:22:05.460Z,34.48
2017-05-02T05:23:15.359Z,34.56
2017-05-02T05:24:25.571Z,34.2
2017-05-02T05:25:35.796Z,34.48
2017-05-02T05:26:46.292Z,34.58
2017-05-02T05:27:55.583Z,34
2017-05-02T05:29:05.800Z,34.29
2017-05-02T05:30:16.032Z,34.39
2017-05-02T05:31:25.626Z,34.39
2017-05-02T05:32:36.155Z,34.1
2017-05-02T05:33:47.109Z,34.1
2017-05-02T05:34:57.015Z,34.1
2017-05-02T05:36:06.910Z,34.2
2017-05-02T05:37:16.810Z,34.02
2017-05-02T05:38:27.057Z,34.02
2017-05-02T05:39:37.270Z,33.92
2017-05-02T05:40:46.873Z,33.83
2017-05-02T05:41:56.497Z,33.83
2017-05-02T05:43:06.417Z,33.73
2017-05-02T05:44:16.634Z,33.92
2017-05-02T05:45:26.545Z,33.92
2017-05-02T05:46:36.762Z,33.83
2017-05-02T05:47:46.964Z,33.94
2017-05-02T05:48:56.859Z,33.92
2017-05-02T05:50:06.948Z,33.92
2017-05-02T05:51:16.539Z,34.12
2017-05-02T05:52:26.754Z,34.02
2017-05-02T05:53:36.667Z,33.92
2017-05-02T05:54:46.568Z,34.02
2017-05-02T05:55:56.473Z,34.21
2017-05-02T05:57:06.074Z,34.21
2017-05-02T05:58:15.380Z,33.92
2017-05-02T05:59:24.978Z,34.02
2017-05-02T06:00:34.882Z,34.41
2017-05-02T06:01:44.776Z,34.41
2017-05-02T06:02:54.675Z,34.31
2017-05-02T06:04:04.604Z,34.31
2017-05-02T06:05:14.819Z,34.21
2017-05-02T06:06:24.726Z,34.6
2017-05-02T06:07:35.096Z,34.5
2017-05-02T06:08:45.017Z,34.31
2017-05-02T06:09:54.928Z,34.21
2017-05-02T06:11:05.137Z,34.7
2017-05-02T06:12:14.731Z,34.41
2017-05-02T06:13:24.485Z,34.99
2017-05-02T06:14:34.722Z,35.16
2017-05-02T06:15:44.935Z,34.41
2017-05-02T06:16:54.840Z,34.6
2017-05-02T06:18:04.435Z,34.7
2017-05-02T06:19:15.190Z,34.78
2017-05-02T06:20:24.821Z,34.89
2017-05-02T06:21:34.736Z,35.28
2017-05-02T06:22:44.949Z,35.26
2017-05-02T06:23:54.538Z,35.36
2017-05-02T06:25:04.700Z,35.06
2017-05-02T06:26:14.909Z,35.16
2017-05-02T06:27:24.220Z,35.06
2017-05-02T06:28:34.438Z,35.26
2017-05-02T06:29:44.342Z,35.16
2017-05-02T06:30:54.098Z,35.16
2017-05-02T06:32:04.000Z,35.26
2017-05-02T06:33:13.002Z,35.26
2017-05-02T06:34:22.302Z,35.26
2017-05-02T06:35:32.526Z,35.45
2017-05-02T06:36:42.898Z,35.45
2017-05-02T06:37:52.809Z,35.45
2017-05-02T06:39:03.077Z,35.55
2017-05-02T06:40:12.981Z,35.55
2017-05-02T06:41:22.883Z,35.72
2017-05-02T06:42:32.744Z,35.63
2017-05-02T06:43:42.674Z,35.63
2017-05-02T06:44:52.897Z,36.01
2017-05-02T06:46:02.192Z,35.72
2017-05-02T06:47:12.096Z,35.82
2017-05-02T06:48:22.006Z,35.92
2017-05-02T06:49:31.918Z,35.82
2017-05-02T06:50:42.126Z,35.92
2017-05-02T06:51:52.030Z,35.82
2017-05-02T06:53:02.252Z,36.11
2017-05-02T06:54:12.107Z,35.92
2017-05-02T06:55:21.714Z,35.92
2017-05-02T06:56:31.939Z,36.3
2017-05-02T06:57:41.901Z,36.3
2017-05-02T06:58:51.492Z,36.3
2017-05-02T07:00:01.505Z,36.21
2017-05-02T07:01:11.432Z,36.3
2017-05-02T07:02:21.651Z,36.3
2017-05-02T07:03:30.643Z,36.21
2017-05-02T07:04:40.557Z,36.4
2017-05-02T07:05:50.403Z,36.4
2017-05-02T07:07:00.313Z,36.11
2017-05-02T07:08:10.219Z,36.21
2017-05-02T07:09:20.126Z,36.5
2017-05-02T07:10:30.029Z,36.5
2017-05-02T07:11:39.902Z,36.4
2017-05-02T07:12:50.112Z,36.4
2017-05-02T07:14:00.018Z,36.48
2017-05-02T07:15:09.315Z,36.57
2017-05-02T07:16:18.602Z,36.48
2017-05-02T07:17:27.928Z,36.48
2017-05-02T07:18:37.525Z,36.57
2017-05-02T07:19:47.130Z,36.57
2017-05-02T07:20:56.444Z,36.57
2017-05-02T07:22:06.668Z,36.67
2017-05-02T07:23:17.043Z,36.77
2017-05-02T07:24:26.651Z,36.77
2017-05-02T07:25:36.870Z,36.67
2017-05-02T07:26:46.770Z,36.67
2017-05-02T07:27:56.691Z,36.77
2017-05-02T07:29:06.238Z,36.57
2017-05-02T07:30:16.470Z,36.57
2017-05-02T07:31:26.380Z,36.67
2017-05-02T07:32:35.987Z,36.87
2017-05-02T07:33:45.894Z,36.77
2017-05-02T07:34:56.440Z,36.77
2017-05-02T07:36:06.122Z,36.87
2017-05-02T07:37:16.028Z,36.77
2017-05-02T07:38:25.342Z,36.67
2017-05-02T07:39:35.567Z,36.77
2017-05-02T07:40:46.085Z,36.87
2017-05-02T07:41:55.699Z,36.87
2017-05-02T07:43:05.292Z,37.06
2017-05-02T07:44:14.288Z,36.77
2017-05-02T07:45:24.529Z,36.77
2017-05-02T07:46:34.298Z,36.77
2017-05-02T07:47:44.209Z,36.67
2017-05-02T07:48:54.439Z,36.77
2017-05-02T07:50:04.072Z,36.77
2017-05-02T07:51:14.293Z,36.67
2017-05-02T07:52:24.635Z,36.67
2017-05-02T07:53:33.932Z,36.67
2017-05-02T07:54:43.848Z,36.77
2017-05-02T07:55:54.072Z,36.77
2017-05-02T07:57:03.674Z,36.67
2017-05-02T07:58:13.206Z,36.67
2017-05-02T07:59:23.134Z,36.77
2017-05-02T08:00:32.153Z,36.67
2017-05-02T08:01:41.447Z,36.87
2017-05-02T08:02:51.706Z,36.87
2017-05-02T08:04:01.926Z,36.67
2017-05-02T08:05:11.521Z,36.77
2017-05-02T08:06:20.827Z,36.77
2017-05-02T08:07:30.439Z,36.77
2017-05-02T08:08:40.670Z,36.67
2017-05-02T08:09:50.733Z,36.77
2017-05-02T08:11:00.641Z,36.67
2017-05-02T08:12:09.625Z,36.57
2017-05-02T08:13:19.829Z,36.77
2017-05-02T08:14:29.420Z,36.77
2017-05-02T08:15:39.923Z,36.77
2017-05-02T08:16:49.884Z,36.57
2017-05-02T08:17:59.824Z,36.67
2017-05-02T08:19:09.732Z,36.67
2017-05-02T08:20:19.955Z,36.67
2017-05-02T08:21:30.259Z,36.67
2017-05-02T08:22:40.159Z,36.77
2017-05-02T08:23:50.368Z,36.67
2017-05-02T08:25:00.276Z,36.77
2017-05-02T08:26:09.910Z,36.57
2017-05-02T08:27:20.537Z,36.67
2017-05-02T08:28:29.828Z,36.57
2017-05-02T08:29:39.432Z,36.48
2017-05-02T08:30:49.351Z,36.48
2017-05-02T08:31:59.258Z,36.48
2017-05-02T08:33:09.421Z,36.57
2017-05-02T08:34:19.337Z,36.48
2017-05-02T08:35:28.637Z,36.48
2017-05-02T08:36:38.549Z,36.48
2017-05-02T08:37:48.462Z,36.29
2017-05-02T08:38:58.930Z,36.38
2017-05-02T08:40:09.149Z,36.48
2017-05-02T08:41:18.772Z,36.29
2017-05-02T08:42:28.074Z,36.19
2017-05-02T08:43:37.682Z,36.38
2017-05-02T08:44:47.693Z,36.48
2017-05-02T08:45:57.608Z,36.38
2017-05-02T08:47:07.225Z,36
2017-05-02T08:48:17.127Z,36
2017-05-02T08:49:27.037Z,36.38
2017-05-02T08:50:37.256Z,36
2017-05-02T08:51:47.166Z,36.38
2017-05-02T08:52:57.081Z,36.48
2017-05-02T08:54:06.694Z,36.38
2017-05-02T08:55:16.607Z,36.48
2017-05-02T08:56:26.815Z,36.29
2017-05-02T08:57:37.010Z,36.38
2017-05-02T08:58:47.226Z,36.19
2017-05-02T08:59:56.840Z,36.19
2017-05-02T09:01:07.078Z,36.09
2017-05-02T09:02:17.075Z,36.19
2017-05-02T09:03:26.997Z,36.38
2017-05-02T09:04:36.610Z,36.29
2017-05-02T09:05:46.530Z,36.38
2017-05-02T09:06:56.144Z,36.29
2017-05-02T09:08:05.899Z,36.38
2017-05-02T09:09:15.495Z,36.29
2017-05-02T09:10:25.100Z,36.38
2017-05-02T09:11:35.001Z,36.09
2017-05-02T09:12:45.211Z,36.29
2017-05-02T09:13:56.134Z,36.09
2017-05-02T09:15:06.354Z,36.29
2017-05-02T09:16:16.261Z,36.19
2017-05-02T09:17:26.200Z,36.19
2017-05-02T09:18:36.450Z,36.38
2017-05-02T09:19:46.915Z,36.19
2017-05-02T09:20:56.825Z,36.29
2017-05-02T09:22:06.440Z,36.19
2017-05-02T09:23:16.066Z,36.09
2017-05-02T09:24:25.980Z,36.09
2017-05-02T09:25:36.137Z,36
2017-05-02T09:26:46.340Z,35.9
2017-05-02T09:27:56.601Z,36.09
2017-05-02T09:29:06.816Z,35.71
2017-05-02T09:30:17.034Z,36.09
2017-05-02T09:31:27.250Z,36
2017-05-02T09:32:36.853Z,35.9
2017-05-02T09:33:46.807Z,35.71
2017-05-02T09:34:56.424Z,36.09
2017-05-02T09:36:06.646Z,35.8
2017-05-02T09:37:16.870Z,36.09
2017-05-02T09:38:26.821Z,35.8
2017-05-02T09:39:36.739Z,35.9
2017-05-02T09:40:46.352Z,35.9
2017-05-02T09:41:56.565Z,36
2017-05-02T09:43:06.564Z,35.71
2017-05-02T09:44:16.183Z,36.09
2017-05-02T09:45:26.101Z,36.09
2017-05-02T09:46:36.327Z,35.8
2017-05-02T09:47:46.249Z,35.9
2017-05-02T09:48:56.266Z,36
2017-05-02T09:50:06.185Z,35.8
2017-05-02T09:51:15.781Z,35.61
2017-05-02T09:52:25.728Z,35.8
2017-05-02T09:53:35.638Z,35.71
2017-05-02T09:54:46.162Z,35.52
2017-05-02T09:55:56.420Z,35.52
2017-05-02T09:57:06.038Z,35.52
2017-05-02T09:58:15.652Z,35.53
2017-05-02T09:59:25.247Z,35.53
2017-05-02T10:00:35.560Z,35.52
2017-05-02T10:01:45.471Z,35.32
2017-05-02T10:02:54.759Z,35.53
2017-05-02T10:04:04.678Z,35.44
2017-05-02T10:05:14.890Z,35.34
2017-05-02T10:06:24.808Z,35.44
2017-05-02T10:07:35.017Z,35.34
2017-05-02T10:08:44.946Z,35.24
2017-05-02T10:09:55.166Z,35.24
2017-05-02T10:11:04.788Z,35.24
2017-05-02T10:12:14.529Z,35.24
2017-05-02T10:13:24.753Z,35.53
2017-05-02T10:14:34.972Z,35.44
2017-05-02T10:15:45.188Z,35.34
2017-05-02T10:16:55.087Z,35.53
2017-05-02T10:18:05.615Z,35.24
2017-05-02T10:19:14.931Z,35.14
2017-05-02T10:20:24.575Z,35.24
2017-05-02T10:21:34.229Z,35.42
2017-05-02T10:22:43.843Z,35.63
2017-05-02T10:23:54.096Z,35.34
2017-05-02T10:25:03.999Z,35.44
2017-05-02T10:26:13.610Z,35.24
2017-05-02T10:27:23.554Z,35.44
2017-05-02T10:28:33.834Z,35.34
2017-05-02T10:29:43.247Z,35.24
2017-05-02T10:30:53.157Z,35.34
2017-05-02T10:32:02.759Z,35.24
2017-05-02T10:33:12.675Z,35.24
2017-05-02T10:34:22.587Z,35.24
2017-05-02T10:35:32.745Z,35.05
2017-05-02T10:36:42.963Z,35.24
2017-05-02T10:37:52.873Z,35.14
2017-05-02T10:39:03.100Z,35.24
2017-05-02T10:40:13.347Z,35.14
2017-05-02T10:41:23.034Z,35.05
2017-05-02T10:42:32.949Z,35.14
2017-05-02T10:43:42.870Z,35.14
2017-05-02T10:44:53.090Z,35.05
2017-05-02T10:46:03.005Z,35.14
2017-05-02T10:47:12.781Z,35.24
2017-05-02T10:48:22.383Z,35.34
2017-05-02T10:49:32.590Z,35.34
2017-05-02T10:50:41.877Z,35.34
2017-05-02T10:51:51.790Z,34.78
2017-05-02T10:53:02.310Z,34.66
2017-05-02T10:54:12.548Z,34.68
2017-05-02T10:55:22.754Z,34.58
2017-05-02T10:56:32.666Z,34.39
2017-05-02T10:57:42.573Z,34.48
2017-05-02T10:58:52.332Z,34.97
2017-05-02T11:00:01.965Z,34.39
2017-05-02T11:01:11.560Z,34.68
2017-05-02T11:02:21.799Z,34.97
2017-05-02T11:03:32.011Z,34.78
2017-05-02T11:04:41.870Z,34.68
2017-05-02T11:05:52.088Z,34.29
2017-05-02T11:07:01.710Z,34.2
2017-05-02T11:08:11.626Z,34.48
2017-05-02T11:09:21.841Z,34.29
2017-05-02T11:10:32.335Z,34.48
2017-05-02T11:11:42.237Z,34.48
2017-05-02T11:12:52.441Z,34.48
2017-05-02T11:14:02.040Z,34.29
2017-05-02T11:15:12.261Z,34.2
2017-05-02T11:16:22.483Z,34.2
2017-05-02T11:17:32.713Z,34.68
2017-05-02T11:18:42.317Z,34.29
2017-05-02T11:19:52.230Z,35.16
2017-05-02T11:21:02.449Z,34.58
2017-05-02T11:22:12.462Z,34.48
2017-05-02T11:23:22.069Z,34.58
2017-05-02T11:24:32.308Z,34.68
2017-05-02T11:25:41.614Z,34.58
2017-05-02T11:26:51.588Z,34.87
2017-05-02T11:28:02.356Z,35.16
2017-05-02T11:29:11.986Z,35.24
2017-05-02T11:30:22.198Z,35.14
2017-05-02T11:31:32.102Z,35.16
2017-05-02T11:32:42.014Z,35.16
2017-05-02T11:33:51.724Z,35.14
2017-05-02T11:35:01.939Z,35.05
2017-05-02T11:36:11.841Z,35.05
2017-05-02T11:37:21.444Z,35.05
2017-05-02T11:38:31.068Z,35.24
2017-05-02T11:39:41.287Z,35.24
2017-05-02T11:40:50.906Z,35.14
2017-05-02T11:42:01.143Z,35.34
2017-05-02T11:43:11.056Z,35.14
2017-05-02T11:44:21.282Z,35.14
2017-05-02T11:45:31.597Z,35.14
2017-05-02T11:46:41.520Z,35.24
2017-05-02T11:47:51.760Z,35.14
2017-05-02T11:49:01.376Z,35.14
2017-05-02T11:50:11.287Z,35.14
2017-05-02T11:51:21.497Z,35.05
2017-05-02T11:52:31.400Z,35.14
2017-05-02T11:53:41.619Z,35.05
2017-05-02T11:54:51.524Z,35.14
2017-05-02T11:56:00.823Z,35.14
2017-05-02T11:57:10.831Z,35.24
2017-05-02T11:58:20.443Z,35.16
2017-05-02T11:59:29.749Z,34.87
2017-05-02T12:00:39.665Z,34.56
2017-05-02T12:01:49.590Z,34.68
2017-05-02T12:03:00.105Z,34.58
2017-05-02T12:04:10.340Z,34.97
2017-05-02T12:05:19.943Z,34.58
2017-05-02T12:06:29.560Z,34.48
2017-05-02T12:07:39.168Z,34.58
2017-05-02T12:08:49.178Z,34.78
2017-05-02T12:09:58.779Z,34.39
2017-05-02T12:11:08.460Z,34.39
2017-05-02T12:12:17.134Z,34.39
2017-05-02T12:13:27.355Z,34.78
2017-05-02T12:14:37.746Z,34.78
2017-05-02T12:15:47.357Z,34.68
2017-05-02T12:16:57.590Z,34.68
2017-05-02T12:18:07.189Z,34.68
2017-05-02T12:19:16.487Z,34.2
2017-05-02T12:20:26.224Z,34.39
2017-05-02T12:21:35.822Z,34.68
2017-05-02T12:22:45.106Z,34.48
2017-05-02T12:23:55.327Z,34.48
2017-05-02T12:25:05.536Z,34.48
2017-05-02T12:26:15.087Z,34.48
2017-05-02T12:27:24.995Z,34.58
2017-05-02T12:28:34.618Z,34.68
2017-05-02T12:29:44.524Z,34.68
2017-05-02T12:30:54.430Z,34.68
2017-05-02T12:32:04.891Z,34.86
2017-05-02T12:33:15.110Z,34.78
2017-05-02T12:34:25.345Z,34.76
2017-05-02T12:35:34.951Z,34.78
2017-05-02T12:36:44.851Z,34.78
2017-05-02T12:37:55.224Z,34.66
2017-05-02T12:39:04.836Z,34.86
2017-05-02T12:40:14.439Z,35.36
2017-05-02T12:41:24.650Z,35.14
2017-05-02T12:42:34.562Z,35.24
2017-05-02T12:43:44.721Z,35.24
2017-05-02T12:44:54.933Z,35.24
2017-05-02T12:46:04.539Z,35.05
2017-05-02T12:47:14.135Z,35.14
2017-05-02T12:48:24.362Z,35.24
2017-05-02T12:49:34.424Z,35.05
2017-05-02T12:50:44.633Z,35.14
2017-05-02T12:51:54.578Z,35.05
2017-05-02T12:53:04.490Z,34.95
2017-05-02T12:54:14.402Z,35.24
